Terminal Aerodrome Forecast
Issued by NWS Sioux Falls, SD

Home | Current Version | Previous Version | Graphics & Text | Print | Product List | Glossary On
Versions: 1 2 3 4 5 6 7 8 9 10 11 12 13 14
000
FTUS43 KFSD 251157 AAA
TAFFSD
TAF AMD
KFSD 251157Z 2512/2612 07012KT P6SM OVC010
     FM251600 06013KT P6SM OVC018
     FM252000 07013KT P6SM BKN035
     FM260100 09007KT P6SM BKN035=

USA.gov is the U.S. government's official web portal to all federal, state and local government web resources and services.